Jolly Acres, South Dakota
Current Conditions -  °F | °C
As of 8:00 AM on Thursday 18 Dec 2014 (Local Time) from KRAP Reporting Station
Moderate Fog Moderate Fog  
Wind Chill: 13°   Ceiling: 100
Heat Index: 20°   Visibility: 0mi
Dew Point: 19°   Wind: 5mph
Humidity: 96%   Direction: 140°SE
Pressure: 30"   Gusts: NA
Location:  44.0731°N, 103.205°W
Report Text: KRAP 181500Z 14004KT M1/4SM FZFG VV001 M07/M07 A3000 RMK AO2 T10671072
Loading
Personal Weather Stations






























Interactive Weather Map New forecast layout! Learn more

10-Day Weather Forecast

Advertisements
Track Severe Weather on mobile